Riviere-Au-Tonnerre, Canada
Current Conditions -  °F | °C
As of 6:00 PM on Tuesday 27 Jan 2015 (Local Time) from CYGV Reporting Station
Overcast Overcast  
Wind Chill: -18°   Ceiling: 8500
Heat Index:   Visibility: 9mi
Dew Point: -8°   Wind: 16mph
Humidity: 66%   Direction: 30°NNE
Pressure: 30.24"   Gusts: 22mph
Location:  50.27°N, 64.77°W
Report Text: CYGV 272300Z AUTO 03014G19KT 9SM OVC085 M17/M22 A3024 RMK PRESFR SLP246
Loading
Personal Weather Stations






























Interactive Weather Map New forecast layout! Learn more

10-Day Weather Forecast

Advertisements
Track Severe Weather on mobile